Time;durP1;ratioP1;P1;durP2;ratioP2;P2;SDS_P1;SDS_P2;PMS_P1;PMS_P2;Temp;Humidity;BMP_temperature;BMP_pressure;BME280_temperature;BME280_humidity;BME280_pressure;Samples;Min_cycle;Max_cycle;Signal;HPM_P1;HPM_P2
2023/07/16 00:00:31;;;;;;;11.10;2.88;;;17.80;99.90;;;;;;5079302;28;20041;-56
2023/07/16 00:02:56;;;;;;;13.43;3.00;;;17.80;99.90;;;;;;5080664;28;20042;-56
2023/07/16 00:05:22;;;;;;;10.57;2.60;;;17.80;99.90;;;;;;5077708;28;20071;-57
2023/07/16 00:07:48;;;;;;;10.90;2.97;;;17.80;99.90;;;;;;5081347;28;20120;-56
2023/07/16 00:10:14;;;;;;;12.93;2.97;;;17.80;99.90;;;;;;5078992;28;20151;-57
2023/07/16 00:12:40;;;;;;;10.13;2.95;;;17.80;99.90;;;;;;5062855;28;20044;-57
2023/07/16 00:15:06;;;;;;;14.20;3.03;;;17.80;99.90;;;;;;5079955;28;20048;-56
2023/07/16 00:17:33;;;;;;;9.02;3.08;;;17.80;99.90;;;;;;5079202;28;20036;-56
2023/07/16 00:19:59;;;;;;;13.07;3.20;;;17.80;99.90;;;;;;5080323;28;20134;-56
2023/07/16 00:22:25;;;;;;;8.85;2.90;;;17.80;99.90;;;;;;5078882;28;20423;-56
2023/07/16 00:24:50;;;;;;;12.88;3.15;;;17.70;99.90;;;;;;5080885;28;20033;-56
2023/07/16 00:27:16;;;;;;;12.73;3.25;;;17.70;99.90;;;;;;5078444;28;20041;-56
2023/07/16 00:29:42;;;;;;;10.45;2.97;;;17.70;99.90;;;;;;5080727;28;20043;-56
2023/07/16 00:32:08;;;;;;;11.25;3.00;;;17.70;99.90;;;;;;5079108;28;20041;-56
2023/07/16 00:34:33;;;;;;;11.35;3.20;;;17.60;99.90;;;;;;5078954;28;20045;-57
2023/07/16 00:37:01;;;;;;;9.98;2.88;;;17.60;99.90;;;;;;5080120;28;20357;-56
2023/07/16 00:39:30;;;;;;;10.82;2.85;;;17.60;99.90;;;;;;5078532;28;20052;-56
2023/07/16 00:41:56;;;;;;;11.10;2.90;;;17.50;99.90;;;;;;5080312;28;20095;-56
2023/07/16 00:44:22;;;;;;;8.82;2.80;;;17.50;99.90;;;;;;5076774;28;20048;-56
2023/07/16 00:46:48;;;;;;;7.93;3.20;;;17.50;99.90;;;;;;5080449;28;20038;-56
2023/07/16 00:49:14;;;;;;;13.88;3.05;;;17.50;99.90;;;;;;5078000;28;20129;-56
2023/07/16 00:51:40;;;;;;;12.65;3.10;;;17.50;99.90;;;;;;5079097;28;20044;-56
2023/07/16 00:54:06;;;;;;;10.50;3.40;;;17.50;99.90;;;;;;5079998;28;20352;-56
2023/07/16 00:56:32;;;;;;;12.98;3.33;;;17.50;99.90;;;;;;5077067;28;20044;-56
2023/07/16 00:58:58;;;;;;;10.15;3.45;;;17.50;99.90;;;;;;5080144;28;20073;-56
2023/07/16 01:01:23;;;;;;;9.55;3.15;;;17.50;99.90;;;;;;5076623;28;20064;-56
2023/07/16 01:03:50;;;;;;;7.40;3.38;;;17.40;99.90;;;;;;5080310;28;20044;-56
2023/07/16 01:06:25;;;;;;;10.75;3.10;;;17.50;99.90;;;;;;5078869;28;20074;-57
2023/07/16 01:09:03;;;;;;;10.35;3.50;;;17.50;99.90;;;;;;5078817;28;20112;-56
2023/07/16 01:11:30;;;;;;;10.70;3.60;;;17.40;99.90;;;;;;5079535;28;20037;-56
2023/07/16 01:13:57;;;;;;;9.75;3.42;;;17.40;99.90;;;;;;5077898;28;20060;-57
2023/07/16 01:16:24;;;;;;;11.73;3.60;;;17.40;99.90;;;;;;5080267;28;20052;-57
2023/07/16 01:18:50;;;;;;;10.27;3.15;;;17.40;99.90;;;;;;5077147;28;20075;-56
2023/07/16 01:21:19;;;;;;;9.80;3.30;;;17.40;99.90;;;;;;5079632;28;20051;-56
2023/07/16 01:23:57;;;;;;;9.63;3.13;;;17.50;99.90;;;;;;5079421;28;20129;-56
2023/07/16 01:26:28;;;;;;;13.18;3.45;;;17.50;99.90;;;;;;5077804;28;20052;-56
2023/07/16 01:29:13;;;;;;;10.98;3.40;;;17.50;99.90;;;;;;5079913;28;20040;-56
2023/07/16 01:31:40;;;;;;;10.95;3.45;;;17.50;99.90;;;;;;5077218;28;20130;-56
2023/07/16 01:34:06;;;;;;;7.95;3.00;;;17.50;99.90;;;;;;5078113;28;20047;-55
2023/07/16 01:36:35;;;;;;;10.90;3.60;;;17.50;99.90;;;;;;5079088;28;20050;-56
2023/07/16 01:39:01;;;;;;;14.43;3.17;;;17.50;99.90;;;;;;5078108;28;20047;-56
2023/07/16 01:41:27;;;;;;;9.25;3.60;;;17.60;99.90;;;;;;5079349;28;20058;-56
2023/07/16 01:43:52;;;;;;;10.20;4.25;;;17.60;99.90;;;;;;5093124;28;20044;-56
2023/07/16 01:46:19;;;;;;;8.70;3.30;;;17.80;99.90;;;;;;5079859;28;20044;-56
2023/07/16 01:48:44;;;;;;;10.95;3.05;;;17.60;99.90;;;;;;5076403;28;20048;-56
2023/07/16 01:51:13;;;;;;;12.25;4.05;;;17.60;99.90;;;;;;5077971;28;20045;-56
2023/07/16 01:53:42;;;;;;;7.75;3.47;;;17.60;99.90;;;;;;5078798;28;20500;-56
2023/07/16 01:56:08;;;;;;;11.40;3.70;;;17.60;99.90;;;;;;5077951;28;20139;-56
2023/07/16 01:58:34;;;;;;;9.40;3.53;;;17.60;99.90;;;;;;5079319;28;20100;-56
2023/07/16 02:00:59;;;;;;;9.82;3.55;;;17.60;99.90;;;;;;5077489;28;20075;-56
2023/07/16 02:03:25;;;;;;;9.90;4.32;;;17.60;99.90;;;;;;5079578;28;20555;-56
2023/07/16 02:05:51;;;;;;;9.65;3.80;;;17.60;99.90;;;;;;5077241;28;20040;-56
2023/07/16 02:08:20;;;;;;;11.43;3.33;;;17.60;99.90;;;;;;5079597;28;20041;-56
2023/07/16 02:10:48;;;;;;;12.73;3.55;;;17.60;99.90;;;;;;5078376;28;20046;-56
2023/07/16 02:13:13;;;;;;;10.25;3.85;;;17.50;99.90;;;;;;5076549;28;20048;-56
2023/07/16 02:15:39;;;;;;;12.68;3.83;;;17.50;99.90;;;;;;5079182;28;20070;-56
2023/07/16 02:18:06;;;;;;;10.40;3.95;;;17.10;99.90;;;;;;5077317;28;20586;-55
2023/07/16 02:20:32;;;;;;;15.50;4.07;;;17.50;99.90;;;;;;5079205;28;20075;-56
2023/07/16 02:22:58;;;;;;;10.02;3.78;;;17.50;99.90;;;;;;5077270;28;20048;-55
2023/07/16 02:25:23;;;;;;;9.30;3.65;;;17.50;99.90;;;;;;5079501;28;20044;-57
2023/07/16 02:27:49;;;;;;;12.05;3.53;;;17.40;99.90;;;;;;5077002;28;20175;-56
2023/07/16 02:30:15;;;;;;;8.00;3.20;;;17.40;99.90;;;;;;5077994;28;20036;-57
2023/07/16 02:32:41;;;;;;;10.32;3.47;;;17.40;99.90;;;;;;5077510;28;20040;-56
2023/07/16 02:35:07;;;;;;;10.77;3.65;;;17.30;99.90;;;;;;5077128;28;20090;-56
2023/07/16 02:37:33;;;;;;;9.63;3.58;;;17.30;99.90;;;;;;5079382;28;20048;-56
2023/07/16 02:39:59;;;;;;;12.98;4.70;;;17.30;99.90;;;;;;5076976;28;20416;-56
2023/07/16 02:42:24;;;;;;;12.77;3.88;;;17.30;99.90;;;;;;5077834;28;20044;-56
2023/07/16 02:44:50;;;;;;;8.20;3.72;;;17.30;99.90;;;;;;5080860;28;20350;-56
2023/07/16 02:47:16;;;;;;;9.85;3.60;;;17.40;99.90;;;;;;5081580;28;20044;-56
2023/07/16 02:49:42;;;;;;;9.98;3.70;;;17.30;99.90;;;;;;5082349;28;20036;-57
2023/07/16 02:52:07;;;;;;;9.90;4.15;;;17.20;99.90;;;;;;5079350;28;20032;-56
2023/07/16 02:54:36;;;;;;;13.98;4.53;;;17.20;99.90;;;;;;5082313;28;20052;-56
2023/07/16 02:57:01;;;;;;;11.38;4.13;;;17.20;99.90;;;;;;5079084;28;20492;-56
2023/07/16 02:59:27;;;;;;;13.93;4.30;;;17.20;99.90;;;;;;5082861;28;20036;-56
2023/07/16 03:01:53;;;;;;;12.25;4.40;;;17.20;99.90;;;;;;5079363;28;20048;-55
2023/07/16 03:04:19;;;;;;;11.73;3.92;;;17.20;99.90;;;;;;5114056;28;20055;-57
2023/07/16 03:06:45;;;;;;;12.25;4.22;;;17.10;99.90;;;;;;5082179;28;20036;-56
2023/07/16 03:09:11;;;;;;;11.13;4.10;;;17.10;99.90;;;;;;5080365;28;20090;-56
2023/07/16 03:11:37;;;;;;;12.55;4.50;;;17.10;99.90;;;;;;5082034;28;20090;-56
2023/07/16 03:14:02;;;;;;;12.27;4.53;;;17.10;99.90;;;;;;5079936;28;20040;-56
2023/07/16 03:16:28;;;;;;;10.23;4.57;;;17.10;99.90;;;;;;5082354;28;20043;-56
2023/07/16 03:18:54;;;;;;;12.35;4.53;;;17.00;99.90;;;;;;5080428;28;20048;-56
2023/07/16 03:21:20;;;;;;;13.65;4.00;;;17.00;99.90;;;;;;5081454;28;20045;-56
2023/07/16 03:23:45;;;;;;;13.68;4.40;;;17.00;99.90;;;;;;5081650;28;20435;-55
2023/07/16 03:26:11;;;;;;;14.95;4.32;;;17.00;99.90;;;;;;5080006;28;20066;-56
2023/07/16 03:28:37;;;;;;;12.60;4.90;;;17.00;99.90;;;;;;5081748;28;20233;-57
2023/07/16 03:31:02;;;;;;;10.98;4.50;;;17.00;99.90;;;;;;5078357;28;20132;-56
2023/07/16 03:33:28;;;;;;;11.60;4.50;;;17.00;99.90;;;;;;5081878;28;20049;-56
2023/07/16 03:35:54;;;;;;;13.82;4.93;;;17.00;99.90;;;;;;5078511;28;20056;-56
2023/07/16 03:38:19;;;;;;;13.32;4.78;;;16.90;99.90;;;;;;5080014;28;20037;-56
2023/07/16 03:40:49;;;;;;;10.98;4.57;;;16.90;99.90;;;;;;5080633;28;20127;-57
2023/07/16 03:43:16;;;;;;;12.23;4.97;;;16.90;99.90;;;;;;5080066;28;20416;-57
2023/07/16 03:45:42;;;;;;;12.68;4.80;;;16.90;99.90;;;;;;5081191;28;20058;-56
2023/07/16 03:48:07;;;;;;;14.27;5.18;;;16.90;99.90;;;;;;5079618;28;20076;-56
2023/07/16 03:50:34;;;;;;;14.57;4.80;;;16.90;99.90;;;;;;5081679;28;20070;-56
2023/07/16 03:53:00;;;;;;;13.65;5.07;;;16.90;99.90;;;;;;5079668;28;20036;-56
2023/07/16 03:55:25;;;;;;;15.23;5.07;;;16.80;99.90;;;;;;5080618;28;20511;-56
2023/07/16 03:57:51;;;;;;;12.43;4.90;;;16.80;99.90;;;;;;5079393;28;20045;-55
2023/07/16 04:00:17;;;;;;;12.18;5.30;;;16.80;99.90;;;;;;5079687;28;20040;-56
2023/07/16 04:02:43;;;;;;;10.32;4.40;;;16.80;99.90;;;;;;5080942;28;20044;-56
2023/07/16 04:05:09;;;;;;;11.48;4.88;;;16.80;99.90;;;;;;5079166;28;20066;-56
2023/07/16 04:07:35;;;;;;;13.82;4.93;;;16.80;99.90;;;;;;5081365;28;20092;-56
2023/07/16 04:10:01;;;;;;;18.45;5.05;;;16.80;99.90;;;;;;5078950;28;20062;-55
2023/07/16 04:12:26;;;;;;;12.98;4.43;;;16.80;99.90;;;;;;5081055;28;20051;-56
2023/07/16 04:14:57;;;;;;;14.25;5.15;;;16.80;99.90;;;;;;5079628;28;20668;-56
2023/07/16 04:17:23;;;;;;;14.38;5.25;;;16.80;99.90;;;;;;5079489;28;20072;-56
2023/07/16 04:19:49;;;;;;;9.95;4.55;;;16.80;99.90;;;;;;5062549;28;20056;-57
2023/07/16 04:22:15;;;;;;;21.40;5.82;;;16.80;99.90;;;;;;5079029;28;20078;-56
2023/07/16 04:24:41;;;;;;;12.93;5.07;;;16.80;99.90;;;;;;5080868;28;20047;-56
2023/07/16 04:27:06;;;;;;;14.27;4.70;;;16.80;99.90;;;;;;5077382;28;20123;-56
2023/07/16 04:29:32;;;;;;;13.80;4.60;;;16.80;99.90;;;;;;5080914;28;20040;-56
2023/07/16 04:31:58;;;;;;;11.40;4.63;;;16.80;99.90;;;;;;5079421;28;20128;-55
2023/07/16 04:34:24;;;;;;;11.63;4.20;;;16.80;99.90;;;;;;5078065;28;20072;-56
2023/07/16 04:36:50;;;;;;;16.10;4.43;;;16.80;99.90;;;;;;5079040;28;20500;-56
2023/07/16 04:39:15;;;;;;;8.65;3.90;;;16.70;99.90;;;;;;5078528;28;20040;-56
2023/07/16 04:41:41;;;;;;;10.63;4.47;;;16.80;99.90;;;;;;5080225;28;20049;-56
2023/07/16 04:44:07;;;;;;;9.32;4.65;;;16.70;99.90;;;;;;5078036;28;20094;-56
2023/07/16 04:46:32;;;;;;;11.02;4.00;;;16.70;99.90;;;;;;5080579;28;20047;-57
2023/07/16 04:48:58;;;;;;;10.85;4.57;;;16.80;99.90;;;;;;5078799;28;20051;-57
2023/07/16 04:51:24;;;;;;;13.13;4.55;;;16.70;99.90;;;;;;5078175;28;20040;-57
2023/07/16 04:53:49;;;;;;;12.35;4.30;;;16.80;99.90;;;;;;5079916;28;20044;-56
2023/07/16 04:56:16;;;;;;;13.23;4.38;;;16.80;99.90;;;;;;5076909;28;20048;-56
2023/07/16 04:58:42;;;;;;;13.18;4.78;;;16.80;99.90;;;;;;5078947;28;20055;-56
2023/07/16 05:01:09;;;;;;;8.70;4.30;;;16.80;99.90;;;;;;5078017;28;20040;-55
2023/07/16 05:03:35;;;;;;;9.48;4.00;;;16.80;99.90;;;;;;5112895;28;20094;-56
2023/07/16 05:06:01;;;;;;;12.43;3.85;;;16.80;99.90;;;;;;5076386;28;20076;-56
2023/07/16 05:08:27;;;;;;;9.90;4.30;;;16.90;99.90;;;;;;5078039;28;20511;-55
2023/07/16 05:10:52;;;;;;;10.63;4.57;;;17.00;99.90;;;;;;5079417;28;20064;-55
2023/07/16 05:13:18;;;;;;;13.15;4.20;;;17.00;99.90;;;;;;5076647;28;20043;-56
2023/07/16 05:15:44;;;;;;;12.50;3.80;;;17.00;99.90;;;;;;5079924;28;20052;-55
2023/07/16 05:18:10;;;;;;;14.00;4.43;;;17.10;99.90;;;;;;5110316;28;20048;-57
2023/07/16 05:20:35;;;;;;;13.13;3.97;;;17.10;99.90;;;;;;5078579;28;20056;-56
2023/07/16 05:23:01;;;;;;;10.90;3.60;;;17.10;99.90;;;;;;5078177;28;20052;-56
2023/07/16 05:25:27;;;;;;;13.60;3.92;;;17.10;99.90;;;;;;5078188;28;20036;-56
2023/07/16 05:27:53;;;;;;;11.48;4.45;;;17.20;99.90;;;;;;5077940;28;20465;-56
2023/07/16 05:30:18;;;;;;;8.90;3.90;;;17.20;99.90;;;;;;5078419;28;20115;-56
2023/07/16 05:32:44;;;;;;;9.30;3.55;;;17.30;99.90;;;;;;5079810;28;20383;-56
2023/07/16 05:35:10;;;;;;;11.15;4.63;;;17.30;99.90;;;;;;5077810;28;20094;-57
2023/07/16 05:37:35;;;;;;;11.98;4.57;;;17.30;99.90;;;;;;5079841;28;20067;-56
2023/07/16 05:40:03;;;;;;;12.82;4.63;;;17.30;99.90;;;;;;5077569;28;20050;-56
2023/07/16 05:42:29;;;;;;;12.43;4.85;;;17.30;99.90;;;;;;5078296;28;20066;-57
2023/07/16 05:44:54;;;;;;;7.78;3.90;;;17.40;99.90;;;;;;5111656;28;20068;-56
2023/07/16 05:47:20;;;;;;;9.35;3.85;;;17.40;99.90;;;;;;5077126;28;20141;-56
2023/07/16 05:49:46;;;;;;;11.40;4.78;;;17.50;99.90;;;;;;5079424;28;20127;-56
2023/07/16 05:52:12;;;;;;;12.57;4.55;;;17.50;99.90;;;;;;5077753;28;20044;-56
2023/07/16 05:54:38;;;;;;;9.38;4.00;;;17.50;99.90;;;;;;5079484;28;20044;-56
2023/07/16 05:57:04;;;;;;;14.23;4.82;;;17.50;99.90;;;;;;5077315;28;20097;-56
2023/07/16 05:59:29;;;;;;;15.88;5.43;;;17.60;99.90;;;;;;5079795;28;20049;-56
2023/07/16 06:01:57;;;;;;;12.23;5.15;;;17.60;99.90;;;;;;5078240;28;20047;-55
2023/07/16 06:04:23;;;;;;;10.27;5.05;;;17.60;99.90;;;;;;5078365;28;20067;-56
2023/07/16 06:06:49;;;;;;;10.32;4.95;;;17.70;99.90;;;;;;5079123;28;20037;-56
2023/07/16 06:09:14;;;;;;;10.02;4.72;;;17.70;99.90;;;;;;5077450;28;20055;-56
2023/07/16 06:11:40;;;;;;;15.65;5.05;;;17.80;99.90;;;;;;5079062;28;20286;-56
2023/07/16 06:14:06;;;;;;;14.50;4.78;;;17.80;99.90;;;;;;5077253;28;20044;-56
2023/07/16 06:16:31;;;;;;;15.82;5.32;;;17.90;99.90;;;;;;5078440;28;20045;-56
2023/07/16 06:18:57;;;;;;;12.48;4.90;;;17.90;99.90;;;;;;5081259;28;20071;-55
2023/07/16 06:21:23;;;;;;;13.57;4.70;;;17.90;99.90;;;;;;5080706;28;20099;-56
2023/07/16 06:23:48;;;;;;;14.65;5.22;;;17.90;99.90;;;;;;5082969;28;20087;-56
2023/07/16 06:26:14;;;;;;;14.45;5.20;;;17.90;99.90;;;;;;5080883;28;20051;-56
2023/07/16 06:28:40;;;;;;;13.38;5.05;;;18.00;99.90;;;;;;5082903;28;20040;-56
2023/07/16 06:31:05;;;;;;;13.82;5.05;;;18.00;99.90;;;;;;5080953;28;20044;-57
2023/07/16 06:33:31;;;;;;;14.05;5.35;;;18.10;99.90;;;;;;5082915;28;20043;-56
2023/07/16 06:35:57;;;;;;;12.30;5.15;;;18.20;99.90;;;;;;5081265;28;20045;-56
2023/07/16 06:38:22;;;;;;;11.00;5.10;;;18.20;99.90;;;;;;5082425;28;20048;-57
2023/07/16 06:40:49;;;;;;;13.23;5.40;;;18.30;99.90;;;;;;5082239;28;20047;-56
2023/07/16 06:43:16;;;;;;;13.52;5.10;;;18.30;99.90;;;;;;5079618;28;20044;-56
2023/07/16 06:45:42;;;;;;;12.77;5.00;;;18.40;99.90;;;;;;5081343;28;20036;-56
2023/07/16 06:48:08;;;;;;;15.35;5.30;;;18.60;99.90;;;;;;5080643;28;20093;-57
2023/07/16 06:50:34;;;;;;;16.40;5.60;;;18.70;99.90;;;;;;5082740;28;20079;-56
2023/07/16 06:52:59;;;;;;;10.02;5.00;;;18.80;99.90;;;;;;5081043;28;20051;-56
2023/07/16 06:55:25;;;;;;;10.48;4.90;;;18.90;99.90;;;;;;5080567;28;20135;-56
2023/07/16 06:57:51;;;;;;;12.00;5.40;;;19.00;99.90;;;;;;5082068;28;20067;-56
2023/07/16 07:00:17;;;;;;;9.85;4.78;;;19.20;99.90;;;;;;5080828;28;20102;-56
2023/07/16 07:02:42;;;;;;;13.48;5.00;;;19.20;99.90;;;;;;5082284;28;20083;-56
2023/07/16 07:05:08;;;;;;;8.43;4.57;;;19.40;99.90;;;;;;5080339;28;20040;-56
2023/07/16 07:07:34;;;;;;;10.73;5.15;;;19.50;99.90;;;;;;5082388;28;20055;-56
2023/07/16 07:10:00;;;;;;;9.48;4.63;;;19.60;99.90;;;;;;5079964;28;20044;-56
2023/07/16 07:12:26;;;;;;;9.80;5.15;;;19.60;99.90;;;;;;5080774;28;20102;-56
2023/07/16 07:14:52;;;;;;;10.02;4.97;;;19.70;99.90;;;;;;5081401;28;20057;-56
2023/07/16 07:17:17;;;;;;;11.13;4.93;;;19.70;99.90;;;;;;5080810;28;20075;-56
2023/07/16 07:19:43;;;;;;;8.73;4.75;;;19.70;99.90;;;;;;5081749;28;20076;-56
2023/07/16 07:22:10;;;;;;;9.73;5.20;;;19.80;99.90;;;;;;5080153;28;20511;-56
2023/07/16 07:24:35;;;;;;;13.45;5.00;;;19.90;99.90;;;;;;5081941;28;20032;-56
2023/07/16 07:27:02;;;;;;;13.40;5.18;;;20.00;99.90;;;;;;5078297;28;20051;-56
2023/07/16 07:29:27;;;;;;;9.77;5.38;;;20.00;99.90;;;;;;5063280;28;20075;-56
2023/07/16 07:31:53;;;;;;;12.70;4.95;;;20.10;99.90;;;;;;5080569;28;20043;-56
2023/07/16 07:34:19;;;;;;;10.70;4.90;;;20.30;99.90;;;;;;5113181;28;20044;-56
2023/07/16 07:36:45;;;;;;;14.15;5.00;;;20.60;99.60;;;;;;5081593;28;20150;-56
2023/07/16 07:39:13;;;;;;;12.30;5.03;;;20.80;99.50;;;;;;5079565;28;20040;-56
2023/07/16 07:41:38;;;;;;;13.80;4.45;;;20.90;99.20;;;;;;5080253;28;20071;-56
2023/07/16 07:44:04;;;;;;;11.70;5.10;;;21.00;98.70;;;;;;5077940;28;20534;-56
2023/07/16 07:46:30;;;;;;;11.65;5.03;;;21.10;98.70;;;;;;5082030;28;20028;-56
2023/07/16 07:48:56;;;;;;;11.98;5.45;;;21.30;98.60;;;;;;5080189;28;20072;-56
2023/07/16 07:51:21;;;;;;;10.23;4.63;;;21.40;98.60;;;;;;5079329;28;20496;-56
2023/07/16 07:53:47;;;;;;;9.35;4.95;;;21.50;98.30;;;;;;5080930;28;20075;-56
2023/07/16 07:56:13;;;;;;;12.63;5.00;;;21.50;97.80;;;;;;5079503;28;20063;-56
2023/07/16 07:58:38;;;;;;;10.93;5.10;;;21.20;97.60;;;;;;5079910;28;20032;-56
2023/07/16 08:01:05;;;;;;;8.43;4.60;;;21.10;98.40;;;;;;5079282;28;20071;-57
2023/07/16 08:03:31;;;;;;;12.23;5.18;;;21.10;98.60;;;;;;5096960;28;20544;-56
2023/07/16 08:05:57;;;;;;;12.38;5.50;;;21.10;98.60;;;;;;5079475;28;20063;-56
2023/07/16 08:08:23;;;;;;;13.50;5.43;;;21.00;98.50;;;;;;5080279;28;20335;-56
2023/07/16 08:10:48;;;;;;;11.02;4.93;;;20.90;98.60;;;;;;5080566;28;20041;-56
2023/07/16 08:13:14;;;;;;;11.45;5.65;;;20.80;99.00;;;;;;5094645;28;20098;-56
2023/07/16 08:15:40;;;;;;;11.68;5.13;;;20.80;99.10;;;;;;5079144;28;20079;-58
2023/07/16 08:18:06;;;;;;;14.63;5.40;;;20.70;99.30;;;;;;5077371;28;20037;-57
2023/07/16 08:20:32;;;;;;;9.75;4.60;;;20.60;99.40;;;;;;5113455;28;20056;-56
2023/07/16 08:22:57;;;;;;;12.82;4.68;;;20.50;99.50;;;;;;5078717;28;20052;-56
2023/07/16 08:25:23;;;;;;;13.00;5.43;;;20.40;98.90;;;;;;5080641;28;20044;-57
2023/07/16 08:27:49;;;;;;;11.68;5.50;;;20.30;99.30;;;;;;5080062;28;20104;-58
2023/07/16 08:30:14;;;;;;;14.60;5.28;;;20.20;99.70;;;;;;5079114;28;20481;-56
2023/07/16 08:32:40;;;;;;;9.68;5.20;;;20.20;99.80;;;;;;5080514;28;20051;-56
2023/07/16 08:35:06;;;;;;;11.73;4.90;;;20.20;99.80;;;;;;5078492;28;20082;-57
2023/07/16 08:37:32;;;;;;;11.27;4.82;;;20.10;99.60;;;;;;5080529;28;20040;-56
2023/07/16 08:39:58;;;;;;;11.48;4.93;;;20.10;99.60;;;;;;5078443;28;20079;-57
2023/07/16 08:42:24;;;;;;;11.88;5.00;;;20.20;99.90;;;;;;5080146;28;20077;-56
2023/07/16 08:44:50;;;;;;;13.57;4.80;;;20.40;99.60;;;;;;5079520;28;20420;-55
2023/07/16 08:47:17;;;;;;;12.57;4.82;;;20.50;99.60;;;;;;5078959;28;20054;-57
2023/07/16 08:49:56;;;;;;;10.50;4.85;;;20.80;99.30;;;;;;5080079;28;20612;-57
2023/07/16 08:52:22;;;;;;;8.90;5.20;;;20.90;99.20;;;;;;5076901;28;20049;-56
2023/07/16 08:54:48;;;;;;;13.85;4.78;;;21.00;99.20;;;;;;5079110;28;20467;-56
2023/07/16 08:57:14;;;;;;;10.50;4.63;;;21.10;99.30;;;;;;5078311;28;20063;-56
2023/07/16 08:59:40;;;;;;;12.63;4.28;;;21.10;98.90;;;;;;5061873;28;20072;-56
2023/07/16 09:02:06;;;;;;;9.93;4.28;;;21.10;98.30;;;;;;5079491;28;20041;-56
2023/07/16 09:04:33;;;;;;;8.30;4.05;;;20.90;98.30;;;;;;5078309;28;20068;-56
2023/07/16 09:06:58;;;;;;;11.60;5.00;;;20.80;98.40;;;;;;5079943;28;20036;-56
2023/07/16 09:09:25;;;;;;;7.72;4.57;;;20.70;98.70;;;;;;5076570;28;20091;-56
2023/07/16 09:11:51;;;;;;;10.35;5.05;;;20.70;98.90;;;;;;5079879;28;20036;-56
2023/07/16 09:14:20;;;;;;;7.15;3.50;;;20.60;98.70;;;;;;5078002;28;20096;-55
2023/07/16 09:16:53;;;;;;;10.02;4.72;;;20.40;98.30;;;;;;5079786;28;20116;-57
2023/07/16 09:19:21;;;;;;;11.05;5.03;;;20.30;98.50;;;;;;5079478;28;20051;-56
2023/07/16 09:21:51;;;;;;;7.97;4.40;;;20.30;98.80;;;;;;5077935;28;20072;-56
2023/07/16 09:24:18;;;;;;;9.88;5.03;;;20.20;99.10;;;;;;5079837;28;20032;-56
2023/07/16 09:26:49;;;;;;;11.98;5.22;;;20.30;99.00;;;;;;5077652;28;20045;-56
2023/07/16 09:29:15;;;;;;;10.30;4.85;;;20.30;99.10;;;;;;5080352;28;20052;-56
2023/07/16 09:31:54;;;;;;;9.20;4.70;;;20.30;99.10;;;;;;5078166;28;20051;-56
2023/07/16 09:34:20;;;;;;;12.05;4.93;;;20.60;99.00;;;;;;5078446;28;20050;-56
2023/07/16 09:36:49;;;;;;;8.90;4.45;;;20.80;98.30;;;;;;5079629;28;20100;-57
2023/07/16 09:39:21;;;;;;;8.48;4.65;;;20.90;98.20;;;;;;5077678;28;20633;-56
2023/07/16 09:41:50;;;;;;;9.82;4.13;;;20.80;97.60;;;;;;5079617;28;20044;-56
2023/07/16 09:44:17;;;;;;;9.25;4.88;;;20.80;97.80;;;;;;5077614;28;20087;-56
2023/07/16 09:46:44;;;;;;;11.65;5.18;;;20.80;98.30;;;;;;5079275;28;20044;-56
2023/07/16 09:49:10;;;;;;;11.20;5.25;;;20.80;98.50;;;;;;5077548;28;20045;-56
2023/07/16 09:51:37;;;;;;;9.90;4.90;;;20.80;98.80;;;;;;5078203;28;20555;-56
2023/07/16 09:54:04;;;;;;;10.52;5.05;;;20.80;98.70;;;;;;5082970;28;20033;-56
2023/07/16 09:56:37;;;;;;;11.27;5.28;;;20.70;98.70;;;;;;5081559;28;20055;-56
2023/07/16 09:59:11;;;;;;;10.65;5.00;;;20.70;98.70;;;;;;5083910;28;20053;-57
2023/07/16 10:01:40;;;;;;;8.93;4.93;;;20.60;99.00;;;;;;5081942;28;20064;-55
2023/07/16 10:04:16;;;;;;;10.13;5.40;;;20.60;99.20;;;;;;5082824;28;20040;-56
2023/07/16 10:07:01;;;;;;;13.00;5.88;;;20.50;99.20;;;;;;5083026;28;20044;-57
2023/07/16 10:09:35;;;;;;;12.88;5.13;;;20.40;99.40;;;;;;5081217;28;20484;-57
2023/07/16 10:12:14;;;;;;;12.90;5.53;;;20.40;99.60;;;;;;5083358;28;20064;-56
2023/07/16 10:14:42;;;;;;;10.35;4.97;;;20.40;99.90;;;;;;5081890;28;20090;-56
2023/07/16 10:17:11;;;;;;;11.32;5.05;;;20.60;99.90;;;;;;5080705;28;20083;-56
2023/07/16 10:19:56;;;;;;;10.30;5.05;;;20.70;99.90;;;;;;5082752;28;20108;-56
2023/07/16 10:22:51;;;;;;;12.98;5.55;;;20.90;99.80;;;;;;5080872;28;20438;-56
2023/07/16 10:25:17;;;;;;;11.85;5.03;;;20.90;99.90;;;;;;5069560;28;20080;-55
2023/07/16 10:27:43;;;;;;;12.93;5.03;;;20.90;99.50;;;;;;5082382;28;20076;-56
2023/07/16 10:30:09;;;;;;;10.48;4.85;;;20.90;99.50;;;;;;5081294;28;20062;-56
2023/07/16 10:32:35;;;;;;;12.40;5.20;;;20.90;99.60;;;;;;5081267;28;20052;-56
2023/07/16 10:35:02;;;;;;;9.10;4.70;;;21.00;99.30;;;;;;5080868;28;20037;-57
2023/07/16 10:37:28;;;;;;;9.73;5.15;;;21.00;99.00;;;;;;5083058;28;20063;-57
2023/07/16 10:39:56;;;;;;;10.52;4.80;;;21.00;98.90;;;;;;5080606;28;20040;-56
2023/07/16 10:42:24;;;;;;;9.38;4.75;;;21.10;98.90;;;;;;5082353;28;20040;-56
2023/07/16 10:44:51;;;;;;;9.63;5.00;;;21.20;99.10;;;;;;5082092;28;20040;-56
2023/07/16 10:47:34;;;;;;;8.85;5.05;;;21.20;98.80;;;;;;5081156;28;20045;-56
2023/07/16 10:50:03;;;;;;;9.45;4.32;;;21.30;98.90;;;;;;5082791;28;20045;-56
2023/07/16 10:52:29;;;;;;;13.00;5.55;;;21.40;98.90;;;;;;5079214;28;20044;-56
2023/07/16 10:54:57;;;;;;;13.35;5.00;;;21.40;98.60;;;;;;5081265;28;20056;-56
2023/07/16 10:57:27;;;;;;;11.27;5.03;;;21.40;98.80;;;;;;5081038;28;20051;-56
2023/07/16 10:59:56;;;;;;;10.43;4.82;;;21.50;98.70;;;;;;5114146;28;20048;-56
2023/07/16 11:02:23;;;;;;;9.68;5.18;;;21.60;98.80;;;;;;5082134;28;20115;-57
2023/07/16 11:04:53;;;;;;;12.65;5.30;;;21.60;98.80;;;;;;5078973;28;20040;-57
2023/07/16 11:07:19;;;;;;;10.52;5.20;;;21.50;98.80;;;;;;5082110;28;20051;-57
2023/07/16 11:09:50;;;;;;;8.45;4.72;;;21.50;98.80;;;;;;5079634;28;20047;-56
2023/07/16 11:12:23;;;;;;;12.25;5.20;;;21.30;98.40;;;;;;5081707;28;20072;-56
2023/07/16 11:14:51;;;;;;;10.35;4.95;;;21.30;98.50;;;;;;5064206;28;20041;-56
2023/07/16 11:17:17;;;;;;;10.45;5.05;;;21.10;98.50;;;;;;5078999;28;20044;-57
2023/07/16 11:19:47;;;;;;;8.40;5.18;;;21.00;98.30;;;;;;5081757;28;20118;-56
2023/07/16 11:22:14;;;;;;;10.32;5.38;;;21.00;98.30;;;;;;5079856;28;20051;-56
2023/07/16 11:24:45;;;;;;;9.50;5.15;;;20.90;98.40;;;;;;5082354;28;20120;-56
2023/07/16 11:27:31;;;;;;;10.25;4.72;;;20.80;98.70;;;;;;5080165;28;20048;-56
2023/07/16 11:29:59;;;;;;;8.05;4.90;;;20.70;98.90;;;;;;5080644;28;20043;-56
2023/07/16 11:32:30;;;;;;;9.65;4.47;;;20.60;99.00;;;;;;5081164;28;20048;-56
2023/07/16 11:34:58;;;;;;;8.65;4.85;;;20.70;99.10;;;;;;5079691;28;20094;-57
2023/07/16 11:37:28;;;;;;;11.32;4.75;;;20.70;99.10;;;;;;5080324;28;20043;-56
2023/07/16 11:40:05;;;;;;;10.80;5.45;;;20.80;99.50;;;;;;5079665;28;20044;-56
2023/07/16 11:42:39;;;;;;;10.70;5.10;;;20.90;99.40;;;;;;5079748;28;20048;-56
2023/07/16 11:45:15;;;;;;;8.07;4.60;;;21.10;99.20;;;;;;5081150;28;20040;-56
2023/07/16 11:47:41;;;;;;;8.48;4.80;;;21.20;99.00;;;;;;5079418;28;20033;-56
2023/07/16 11:50:07;;;;;;;7.18;4.50;;;21.30;98.90;;;;;;5081541;28;20044;-56
2023/07/16 11:52:33;;;;;;;8.45;4.90;;;21.40;98.60;;;;;;5079006;28;20116;-56
2023/07/16 11:55:03;;;;;;;11.13;5.45;;;21.40;98.70;;;;;;5080322;28;20043;-56
2023/07/16 11:57:29;;;;;;;10.52;5.05;;;21.40;98.60;;;;;;5080079;28;20044;-56
2023/07/16 11:59:55;;;;;;;9.98;5.32;;;21.50;98.70;;;;;;5080297;28;20048;-56
2023/07/16 12:02:21;;;;;;;8.60;5.03;;;21.50;98.90;;;;;;5080937;28;20048;-56
2023/07/16 12:04:48;;;;;;;9.25;4.90;;;21.50;99.00;;;;;;5079209;28;20072;-56
2023/07/16 12:07:14;;;;;;;10.13;5.43;;;21.40;98.60;;;;;;5081086;28;20162;-56
2023/07/16 12:09:40;;;;;;;13.05;5.07;;;21.20;98.60;;;;;;5078874;28;20172;-57
2023/07/16 12:12:06;;;;;;;7.72;4.95;;;21.10;98.80;;;;;;5079736;28;20051;-56
2023/07/16 12:14:32;;;;;;;9.80;5.25;;;21.00;98.90;;;;;;5078459;28;20049;-56
2023/07/16 12:16:58;;;;;;;10.38;5.30;;;20.90;99.10;;;;;;5079608;28;20515;-56
2023/07/16 12:19:25;;;;;;;8.93;5.53;;;20.90;99.10;;;;;;5080541;28;20147;-56
2023/07/16 12:21:51;;;;;;;8.63;4.82;;;20.90;99.10;;;;;;5078841;28;20075;-56
2023/07/16 12:24:17;;;;;;;10.43;5.28;;;21.00;99.20;;;;;;5080770;28;20037;-56
2023/07/16 12:26:42;;;;;;;7.55;4.68;;;21.00;99.30;;;;;;5077004;28;20090;-56
2023/07/16 12:29:08;;;;;;;8.77;4.50;;;21.10;99.10;;;;;;5079497;28;20040;-56
2023/07/16 12:31:34;;;;;;;9.05;4.93;;;21.10;99.00;;;;;;5111581;28;20044;-56
2023/07/16 12:34:04;;;;;;;9.27;4.80;;;21.10;99.00;;;;;;5079825;28;20040;-56
2023/07/16 12:36:30;;;;;;;10.52;4.15;;;21.20;99.10;;;;;;5078905;28;20032;-56
2023/07/16 12:38:55;;;;;;;7.68;4.00;;;21.30;98.60;;;;;;5078499;28;20075;-57